Terminal Aerodrome Forecast
Issued by NWS Melbourne, FL

Home | Current Version | Previous Version | Text Only | Print | Product List | Glossary On
Versions: 1 2 3 4 5 6 7 8 9 10 11 12 13 14
000
FTUS42 KMLB 021131
TAFMLB
TAF
KMLB 021131Z 0212/0312 16007KT P6SM VCSH SCT050 OVC150
     FM021400 18010KT P6SM VCSH SCT030 BKN150
     FM021600 23012G18KT P6SM VCSH SCT040 BKN080
      TEMPO 0216/0220 3SM TSRA BKN020CB OVC040
     FM022200 23007KT P6SM SCT030 OVC060
     FM030200 20005KT P6SM FEW035 BKN090 OVC200=

USA.gov is the U.S. government's official web portal to all federal, state and local government web resources and services.